sensor_id;sensor_type;location;lat;lon;timestamp;temperature;humidity
71142;DHT22;58808;59.366;17.970;2024-03-29T00:01:21;7.00;99.90
71142;DHT22;58808;59.366;17.970;2024-03-29T00:03:47;7.00;99.90
71142;DHT22;58808;59.366;17.970;2024-03-29T00:06:12;7.00;99.90
71142;DHT22;58808;59.366;17.970;2024-03-29T00:08:38;7.00;99.90
71142;DHT22;58808;59.366;17.970;2024-03-29T00:11:04;6.90;99.90
71142;DHT22;58808;59.366;17.970;2024-03-29T00:13:30;6.90;99.90
71142;DHT22;58808;59.366;17.970;2024-03-29T00:15:55;6.90;99.90
71142;DHT22;58808;59.366;17.970;2024-03-29T00:18:21;6.90;99.90
71142;DHT22;58808;59.366;17.970;2024-03-29T00:20:47;6.90;99.90
71142;DHT22;58808;59.366;17.970;2024-03-29T00:23:13;6.90;99.90
71142;DHT22;58808;59.366;17.970;2024-03-29T00:25:39;6.90;99.90
71142;DHT22;58808;59.366;17.970;2024-03-29T00:28:05;6.90;99.90
71142;DHT22;58808;59.366;17.970;2024-03-29T00:30:30;6.80;99.90
71142;DHT22;58808;59.366;17.970;2024-03-29T00:32:56;6.80;99.90
71142;DHT22;58808;59.366;17.970;2024-03-29T00:35:22;6.80;99.90
71142;DHT22;58808;59.366;17.970;2024-03-29T00:37:49;6.80;99.90
71142;DHT22;58808;59.366;17.970;2024-03-29T00:40:15;6.80;99.90
71142;DHT22;58808;59.366;17.970;2024-03-29T00:42:41;6.70;99.90
71142;DHT22;58808;59.366;17.970;2024-03-29T00:45:07;6.70;99.90
71142;DHT22;58808;59.366;17.970;2024-03-29T00:47:34;6.70;99.90
71142;DHT22;58808;59.366;17.970;2024-03-29T00:50:00;6.70;99.90
71142;DHT22;58808;59.366;17.970;2024-03-29T00:52:25;6.70;99.90
71142;DHT22;58808;59.366;17.970;2024-03-29T00:54:51;6.60;99.90
71142;DHT22;58808;59.366;17.970;2024-03-29T00:57:17;6.50;99.90
71142;DHT22;58808;59.366;17.970;2024-03-29T00:59:43;6.50;99.90
71142;DHT22;58808;59.366;17.970;2024-03-29T01:02:09;6.50;99.90
71142;DHT22;58808;59.366;17.970;2024-03-29T01:04:35;6.50;99.90
71142;DHT22;58808;59.366;17.970;2024-03-29T01:07:01;6.50;99.90
71142;DHT22;58808;59.366;17.970;2024-03-29T01:09:27;6.40;99.90
71142;DHT22;58808;59.366;17.970;2024-03-29T01:11:52;6.40;99.90
71142;DHT22;58808;59.366;17.970;2024-03-29T01:14:19;6.40;99.90
71142;DHT22;58808;59.366;17.970;2024-03-29T01:16:45;6.40;99.90
71142;DHT22;58808;59.366;17.970;2024-03-29T01:19:11;6.50;99.90
71142;DHT22;58808;59.366;17.970;2024-03-29T01:21:36;6.40;99.90
71142;DHT22;58808;59.366;17.970;2024-03-29T01:24:03;6.40;99.90
71142;DHT22;58808;59.366;17.970;2024-03-29T01:26:28;6.40;99.90
71142;DHT22;58808;59.366;17.970;2024-03-29T01:28:54;6.30;99.90
71142;DHT22;58808;59.366;17.970;2024-03-29T01:31:20;6.30;99.90
71142;DHT22;58808;59.366;17.970;2024-03-29T01:33:45;6.30;99.90
71142;DHT22;58808;59.366;17.970;2024-03-29T01:36:11;6.30;99.90
71142;DHT22;58808;59.366;17.970;2024-03-29T01:38:37;6.30;99.90
71142;DHT22;58808;59.366;17.970;2024-03-29T01:41:02;6.30;99.90
71142;DHT22;58808;59.366;17.970;2024-03-29T01:43:28;6.30;99.90
71142;DHT22;58808;59.366;17.970;2024-03-29T01:45:55;6.30;99.90
71142;DHT22;58808;59.366;17.970;2024-03-29T01:48:23;6.30;99.90
71142;DHT22;58808;59.366;17.970;2024-03-29T01:50:50;6.30;99.90
71142;DHT22;58808;59.366;17.970;2024-03-29T01:53:18;6.40;99.90
71142;DHT22;58808;59.366;17.970;2024-03-29T01:55:44;6.40;99.90
71142;DHT22;58808;59.366;17.970;2024-03-29T01:58:11;6.40;99.90
71142;DHT22;58808;59.366;17.970;2024-03-29T02:00:41;6.30;99.90
71142;DHT22;58808;59.366;17.970;2024-03-29T02:03:07;6.30;99.90
71142;DHT22;58808;59.366;17.970;2024-03-29T02:05:43;6.40;99.90
71142;DHT22;58808;59.366;17.970;2024-03-29T02:08:10;6.40;99.90
71142;DHT22;58808;59.366;17.970;2024-03-29T02:10:36;6.40;99.90
71142;DHT22;58808;59.366;17.970;2024-03-29T02:13:02;6.40;99.90
71142;DHT22;58808;59.366;17.970;2024-03-29T02:15:29;6.30;99.90
71142;DHT22;58808;59.366;17.970;2024-03-29T02:17:55;6.30;99.90
71142;DHT22;58808;59.366;17.970;2024-03-29T02:20:21;6.30;99.90
71142;DHT22;58808;59.366;17.970;2024-03-29T02:22:55;6.30;99.90
71142;DHT22;58808;59.366;17.970;2024-03-29T02:25:22;6.20;99.90
71142;DHT22;58808;59.366;17.970;2024-03-29T02:27:48;6.30;99.90
71142;DHT22;58808;59.366;17.970;2024-03-29T02:30:15;6.30;99.90
71142;DHT22;58808;59.366;17.970;2024-03-29T02:32:41;6.30;99.90
71142;DHT22;58808;59.366;17.970;2024-03-29T02:35:07;6.20;99.90
71142;DHT22;58808;59.366;17.970;2024-03-29T02:37:36;6.20;99.90
71142;DHT22;58808;59.366;17.970;2024-03-29T02:40:03;6.20;99.90
71142;DHT22;58808;59.366;17.970;2024-03-29T02:42:29;6.20;99.90
71142;DHT22;58808;59.366;17.970;2024-03-29T02:44:55;6.10;99.90
71142;DHT22;58808;59.366;17.970;2024-03-29T02:47:23;6.10;99.90
71142;DHT22;58808;59.366;17.970;2024-03-29T02:49:49;6.10;99.90
71142;DHT22;58808;59.366;17.970;2024-03-29T02:52:14;6.00;99.90
71142;DHT22;58808;59.366;17.970;2024-03-29T02:54:41;6.00;99.90
71142;DHT22;58808;59.366;17.970;2024-03-29T02:57:07;6.00;99.90
71142;DHT22;58808;59.366;17.970;2024-03-29T02:59:32;5.90;99.90
71142;DHT22;58808;59.366;17.970;2024-03-29T03:01:58;5.90;99.90
71142;DHT22;58808;59.366;17.970;2024-03-29T03:04:24;5.90;99.90
71142;DHT22;58808;59.366;17.970;2024-03-29T03:06:49;5.80;99.90
71142;DHT22;58808;59.366;17.970;2024-03-29T03:09:15;5.80;99.90
71142;DHT22;58808;59.366;17.970;2024-03-29T03:12:09;5.90;99.90
71142;DHT22;58808;59.366;17.970;2024-03-29T03:14:35;5.90;99.90
71142;DHT22;58808;59.366;17.970;2024-03-29T03:17:01;5.90;99.90
71142;DHT22;58808;59.366;17.970;2024-03-29T03:19:26;6.00;99.90
71142;DHT22;58808;59.366;17.970;2024-03-29T03:21:52;6.00;99.90
71142;DHT22;58808;59.366;17.970;2024-03-29T03:24:18;6.00;99.90
71142;DHT22;58808;59.366;17.970;2024-03-29T03:26:43;6.00;99.90
71142;DHT22;58808;59.366;17.970;2024-03-29T03:29:09;5.90;99.90
71142;DHT22;58808;59.366;17.970;2024-03-29T03:31:35;5.90;99.90
71142;DHT22;58808;59.366;17.970;2024-03-29T03:34:01;5.90;99.90
71142;DHT22;58808;59.366;17.970;2024-03-29T03:36:26;5.90;99.90
71142;DHT22;58808;59.366;17.970;2024-03-29T03:38:52;5.90;99.90
71142;DHT22;58808;59.366;17.970;2024-03-29T03:41:18;5.80;99.90
71142;DHT22;58808;59.366;17.970;2024-03-29T03:43:43;5.80;99.90
71142;DHT22;58808;59.366;17.970;2024-03-29T03:46:09;5.80;99.90
71142;DHT22;58808;59.366;17.970;2024-03-29T03:48:56;5.80;99.90
71142;DHT22;58808;59.366;17.970;2024-03-29T03:51:22;5.70;99.90
71142;DHT22;58808;59.366;17.970;2024-03-29T03:53:48;5.70;99.90
71142;DHT22;58808;59.366;17.970;2024-03-29T03:56:13;5.80;99.90
71142;DHT22;58808;59.366;17.970;2024-03-29T03:58:39;5.80;99.90
71142;DHT22;58808;59.366;17.970;2024-03-29T04:01:05;5.80;99.90
71142;DHT22;58808;59.366;17.970;2024-03-29T04:03:31;5.70;99.90
71142;DHT22;58808;59.366;17.970;2024-03-29T04:05:57;5.70;99.90
71142;DHT22;58808;59.366;17.970;2024-03-29T04:08:22;5.70;99.90
71142;DHT22;58808;59.366;17.970;2024-03-29T04:10:48;5.70;99.90
71142;DHT22;58808;59.366;17.970;2024-03-29T04:13:14;5.60;99.90
71142;DHT22;58808;59.366;17.970;2024-03-29T04:15:39;5.60;99.90
71142;DHT22;58808;59.366;17.970;2024-03-29T04:18:06;5.70;99.90
71142;DHT22;58808;59.366;17.970;2024-03-29T04:20:32;5.70;99.90
71142;DHT22;58808;59.366;17.970;2024-03-29T04:22:57;5.70;99.90
71142;DHT22;58808;59.366;17.970;2024-03-29T04:25:23;5.70;99.90
71142;DHT22;58808;59.366;17.970;2024-03-29T04:27:49;5.60;99.90
71142;DHT22;58808;59.366;17.970;2024-03-29T04:30:14;5.70;99.90
71142;DHT22;58808;59.366;17.970;2024-03-29T04:32:40;5.70;99.90
71142;DHT22;58808;59.366;17.970;2024-03-29T04:35:06;5.70;99.90
71142;DHT22;58808;59.366;17.970;2024-03-29T04:37:32;5.70;99.90
71142;DHT22;58808;59.366;17.970;2024-03-29T04:39:57;5.70;99.90
71142;DHT22;58808;59.366;17.970;2024-03-29T04:42:23;5.70;99.90
71142;DHT22;58808;59.366;17.970;2024-03-29T04:44:49;5.70;99.90
71142;DHT22;58808;59.366;17.970;2024-03-29T04:47:14;5.70;99.90
71142;DHT22;58808;59.366;17.970;2024-03-29T04:49:40;5.70;99.90
71142;DHT22;58808;59.366;17.970;2024-03-29T04:52:06;5.70;99.90
71142;DHT22;58808;59.366;17.970;2024-03-29T04:54:32;5.70;99.90
71142;DHT22;58808;59.366;17.970;2024-03-29T04:57:00;5.70;99.90
71142;DHT22;58808;59.366;17.970;2024-03-29T04:59:31;5.70;99.90
71142;DHT22;58808;59.366;17.970;2024-03-29T05:01:59;5.70;99.90
71142;DHT22;58808;59.366;17.970;2024-03-29T05:04:24;5.70;99.90
71142;DHT22;58808;59.366;17.970;2024-03-29T05:06:57;5.80;99.90
71142;DHT22;58808;59.366;17.970;2024-03-29T05:09:24;5.70;99.90
71142;DHT22;58808;59.366;17.970;2024-03-29T05:11:50;5.80;99.90
71142;DHT22;58808;59.366;17.970;2024-03-29T05:14:17;5.80;99.90
71142;DHT22;58808;59.366;17.970;2024-03-29T05:16:47;5.80;99.90
71142;DHT22;58808;59.366;17.970;2024-03-29T05:19:13;5.80;99.90
71142;DHT22;58808;59.366;17.970;2024-03-29T05:21:39;5.90;99.90
71142;DHT22;58808;59.366;17.970;2024-03-29T05:24:06;5.90;99.90
71142;DHT22;58808;59.366;17.970;2024-03-29T05:26:32;5.90;99.90
71142;DHT22;58808;59.366;17.970;2024-03-29T05:28:57;5.90;99.90
71142;DHT22;58808;59.366;17.970;2024-03-29T05:31:24;5.90;99.90
71142;DHT22;58808;59.366;17.970;2024-03-29T05:33:50;5.90;99.90
71142;DHT22;58808;59.366;17.970;2024-03-29T05:36:16;6.00;99.90
71142;DHT22;58808;59.366;17.970;2024-03-29T05:38:41;6.00;99.90
71142;DHT22;58808;59.366;17.970;2024-03-29T05:41:07;6.00;99.90
71142;DHT22;58808;59.366;17.970;2024-03-29T05:43:33;6.00;99.90
71142;DHT22;58808;59.366;17.970;2024-03-29T05:45:59;6.00;99.90
71142;DHT22;58808;59.366;17.970;2024-03-29T05:48:27;6.00;99.90
71142;DHT22;58808;59.366;17.970;2024-03-29T05:50:52;6.00;99.90
71142;DHT22;58808;59.366;17.970;2024-03-29T05:53:18;6.10;99.90
71142;DHT22;58808;59.366;17.970;2024-03-29T05:55:44;6.10;99.90
71142;DHT22;58808;59.366;17.970;2024-03-29T05:58:10;6.10;99.90
71142;DHT22;58808;59.366;17.970;2024-03-29T06:00:35;6.10;99.90
71142;DHT22;58808;59.366;17.970;2024-03-29T06:03:02;6.10;99.90
71142;DHT22;58808;59.366;17.970;2024-03-29T06:05:30;6.10;99.90
71142;DHT22;58808;59.366;17.970;2024-03-29T06:07:56;6.20;99.90
71142;DHT22;58808;59.366;17.970;2024-03-29T06:10:22;6.20;99.90
71142;DHT22;58808;59.366;17.970;2024-03-29T06:12:48;6.20;99.90
71142;DHT22;58808;59.366;17.970;2024-03-29T06:15:16;6.20;99.90
71142;DHT22;58808;59.366;17.970;2024-03-29T06:18:00;6.20;99.90
71142;DHT22;58808;59.366;17.970;2024-03-29T06:20:26;6.20;99.90
71142;DHT22;58808;59.366;17.970;2024-03-29T06:22:52;6.30;99.90
71142;DHT22;58808;59.366;17.970;2024-03-29T06:25:18;6.30;99.90
71142;DHT22;58808;59.366;17.970;2024-03-29T06:27:43;6.30;99.90
71142;DHT22;58808;59.366;17.970;2024-03-29T06:30:13;6.30;99.90
71142;DHT22;58808;59.366;17.970;2024-03-29T06:32:39;6.30;99.90
71142;DHT22;58808;59.366;17.970;2024-03-29T06:35:05;6.30;99.90
71142;DHT22;58808;59.366;17.970;2024-03-29T06:37:31;6.30;99.90
71142;DHT22;58808;59.366;17.970;2024-03-29T06:39:57;6.30;99.90
71142;DHT22;58808;59.366;17.970;2024-03-29T06:42:23;6.30;99.90
71142;DHT22;58808;59.366;17.970;2024-03-29T06:44:49;6.40;99.90
71142;DHT22;58808;59.366;17.970;2024-03-29T06:47:15;6.40;99.90
71142;DHT22;58808;59.366;17.970;2024-03-29T06:49:40;6.40;99.90
71142;DHT22;58808;59.366;17.970;2024-03-29T06:52:06;6.40;99.90
71142;DHT22;58808;59.366;17.970;2024-03-29T06:54:32;6.40;99.90
71142;DHT22;58808;59.366;17.970;2024-03-29T06:56:59;6.50;99.90
71142;DHT22;58808;59.366;17.970;2024-03-29T06:59:26;6.40;99.90
71142;DHT22;58808;59.366;17.970;2024-03-29T07:01:53;6.40;99.90
71142;DHT22;58808;59.366;17.970;2024-03-29T07:04:23;6.40;99.90
71142;DHT22;58808;59.366;17.970;2024-03-29T07:06:52;6.40;99.90
71142;DHT22;58808;59.366;17.970;2024-03-29T07:09:19;6.50;99.90
71142;DHT22;58808;59.366;17.970;2024-03-29T07:11:46;6.50;99.90
71142;DHT22;58808;59.366;17.970;2024-03-29T07:14:13;6.50;99.90
71142;DHT22;58808;59.366;17.970;2024-03-29T07:16:39;6.50;99.90
71142;DHT22;58808;59.366;17.970;2024-03-29T07:19:05;6.50;99.90
71142;DHT22;58808;59.366;17.970;2024-03-29T07:21:30;6.50;99.90
71142;DHT22;58808;59.366;17.970;2024-03-29T07:23:56;6.50;99.90
71142;DHT22;58808;59.366;17.970;2024-03-29T07:26:22;6.50;99.90
71142;DHT22;58808;59.366;17.970;2024-03-29T07:28:48;6.50;99.90
71142;DHT22;58808;59.366;17.970;2024-03-29T07:31:13;6.60;99.90
71142;DHT22;58808;59.366;17.970;2024-03-29T07:33:39;6.60;99.90
71142;DHT22;58808;59.366;17.970;2024-03-29T07:36:05;6.60;99.90
71142;DHT22;58808;59.366;17.970;2024-03-29T07:38:31;6.70;99.90
71142;DHT22;58808;59.366;17.970;2024-03-29T07:40:57;6.70;99.90
71142;DHT22;58808;59.366;17.970;2024-03-29T07:43:23;6.70;99.90
71142;DHT22;58808;59.366;17.970;2024-03-29T07:45:49;6.70;99.90
71142;DHT22;58808;59.366;17.970;2024-03-29T07:48:16;6.70;99.90
71142;DHT22;58808;59.366;17.970;2024-03-29T07:50:43;6.80;99.90
71142;DHT22;58808;59.366;17.970;2024-03-29T07:53:09;6.80;99.90
71142;DHT22;58808;59.366;17.970;2024-03-29T07:55:38;6.80;99.90
71142;DHT22;58808;59.366;17.970;2024-03-29T07:58:05;6.80;99.90
71142;DHT22;58808;59.366;17.970;2024-03-29T08:00:34;6.80;99.90
71142;DHT22;58808;59.366;17.970;2024-03-29T08:03:00;6.80;99.90
71142;DHT22;58808;59.366;17.970;2024-03-29T08:05:27;6.80;99.90
71142;DHT22;58808;59.366;17.970;2024-03-29T08:07:52;6.80;99.90
71142;DHT22;58808;59.366;17.970;2024-03-29T08:10:18;6.80;99.90
71142;DHT22;58808;59.366;17.970;2024-03-29T08:12:44;6.80;99.90
71142;DHT22;58808;59.366;17.970;2024-03-29T08:15:09;6.80;99.90
71142;DHT22;58808;59.366;17.970;2024-03-29T08:17:36;6.80;99.90
71142;DHT22;58808;59.366;17.970;2024-03-29T08:20:02;6.80;99.90
71142;DHT22;58808;59.366;17.970;2024-03-29T08:22:28;6.80;99.90
71142;DHT22;58808;59.366;17.970;2024-03-29T08:24:55;6.80;99.90
71142;DHT22;58808;59.366;17.970;2024-03-29T08:27:21;6.90;99.90
71142;DHT22;58808;59.366;17.970;2024-03-29T08:29:46;6.90;99.90
71142;DHT22;58808;59.366;17.970;2024-03-29T08:32:14;6.90;99.90
71142;DHT22;58808;59.366;17.970;2024-03-29T08:34:40;6.90;99.90
71142;DHT22;58808;59.366;17.970;2024-03-29T08:37:06;6.90;99.90
71142;DHT22;58808;59.366;17.970;2024-03-29T08:39:32;6.90;99.90
71142;DHT22;58808;59.366;17.970;2024-03-29T08:41:58;6.90;99.90
71142;DHT22;58808;59.366;17.970;2024-03-29T08:44:27;6.90;99.90
71142;DHT22;58808;59.366;17.970;2024-03-29T08:46:53;7.00;99.90
71142;DHT22;58808;59.366;17.970;2024-03-29T08:49:22;7.00;99.90
71142;DHT22;58808;59.366;17.970;2024-03-29T08:51:48;7.00;99.90
71142;DHT22;58808;59.366;17.970;2024-03-29T08:54:13;7.10;99.90
71142;DHT22;58808;59.366;17.970;2024-03-29T08:56:39;7.20;99.90
71142;DHT22;58808;59.366;17.970;2024-03-29T08:59:06;7.30;99.90
71142;DHT22;58808;59.366;17.970;2024-03-29T09:01:45;7.30;99.90
71142;DHT22;58808;59.366;17.970;2024-03-29T09:04:14;7.30;99.90
71142;DHT22;58808;59.366;17.970;2024-03-29T09:06:41;7.30;99.90
71142;DHT22;58808;59.366;17.970;2024-03-29T09:09:07;7.30;99.90
71142;DHT22;58808;59.366;17.970;2024-03-29T09:11:34;7.40;99.90
71142;DHT22;58808;59.366;17.970;2024-03-29T09:14:00;7.50;99.90
71142;DHT22;58808;59.366;17.970;2024-03-29T09:16:26;7.50;99.90
71142;DHT22;58808;59.366;17.970;2024-03-29T09:18:54;7.60;99.90
71142;DHT22;58808;59.366;17.970;2024-03-29T09:21:20;7.60;99.90
71142;DHT22;58808;59.366;17.970;2024-03-29T09:23:46;7.60;99.90
71142;DHT22;58808;59.366;17.970;2024-03-29T09:26:14;7.70;99.90
71142;DHT22;58808;59.366;17.970;2024-03-29T09:28:40;7.70;99.90
71142;DHT22;58808;59.366;17.970;2024-03-29T09:31:06;7.80;99.90
71142;DHT22;58808;59.366;17.970;2024-03-29T09:33:32;7.80;99.90
71142;DHT22;58808;59.366;17.970;2024-03-29T09:35:58;7.80;99.90
71142;DHT22;58808;59.366;17.970;2024-03-29T09:38:25;7.90;99.90
71142;DHT22;58808;59.366;17.970;2024-03-29T09:43:33;8.10;99.90
71142;DHT22;58808;59.366;17.970;2024-03-29T09:45:59;8.20;99.90
71142;DHT22;58808;59.366;17.970;2024-03-29T09:48:25;8.30;99.90
71142;DHT22;58808;59.366;17.970;2024-03-29T09:50:54;8.30;99.90
71142;DHT22;58808;59.366;17.970;2024-03-29T09:53:21;8.30;99.90
71142;DHT22;58808;59.366;17.970;2024-03-29T09:55:48;8.20;99.90
71142;DHT22;58808;59.366;17.970;2024-03-29T09:58:15;8.10;99.90
71142;DHT22;58808;59.366;17.970;2024-03-29T10:00:41;8.10;99.90
71142;DHT22;58808;59.366;17.970;2024-03-29T10:03:07;8.10;99.90
71142;DHT22;58808;59.366;17.970;2024-03-29T10:05:34;8.10;99.90
71142;DHT22;58808;59.366;17.970;2024-03-29T10:08:00;8.10;99.90
71142;DHT22;58808;59.366;17.970;2024-03-29T10:10:32;8.00;99.90
71142;DHT22;58808;59.366;17.970;2024-03-29T10:12:58;8.10;99.90
71142;DHT22;58808;59.366;17.970;2024-03-29T10:15:24;8.10;99.90
71142;DHT22;58808;59.366;17.970;2024-03-29T10:17:52;8.20;99.90
71142;DHT22;58808;59.366;17.970;2024-03-29T10:20:19;8.20;99.90
71142;DHT22;58808;59.366;17.970;2024-03-29T10:22:45;8.30;99.90
71142;DHT22;58808;59.366;17.970;2024-03-29T10:25:13;8.30;99.90
71142;DHT22;58808;59.366;17.970;2024-03-29T10:27:39;8.30;99.90
71142;DHT22;58808;59.366;17.970;2024-03-29T10:30:07;8.30;99.90
71142;DHT22;58808;59.366;17.970;2024-03-29T10:32:36;8.20;99.90
71142;DHT22;58808;59.366;17.970;2024-03-29T10:35:02;8.20;99.90
71142;DHT22;58808;59.366;17.970;2024-03-29T10:37:28;8.30;99.90
71142;DHT22;58808;59.366;17.970;2024-03-29T10:39:58;8.30;99.90
71142;DHT22;58808;59.366;17.970;2024-03-29T10:42:24;8.30;99.90
71142;DHT22;58808;59.366;17.970;2024-03-29T10:44:53;8.20;99.90
71142;DHT22;58808;59.366;17.970;2024-03-29T10:47:20;8.20;99.90
71142;DHT22;58808;59.366;17.970;2024-03-29T10:49:50;8.10;99.90
71142;DHT22;58808;59.366;17.970;2024-03-29T10:52:17;8.10;99.90
71142;DHT22;58808;59.366;17.970;2024-03-29T10:54:47;8.10;99.90
71142;DHT22;58808;59.366;17.970;2024-03-29T10:57:26;8.10;99.90
71142;DHT22;58808;59.366;17.970;2024-03-29T11:00:11;8.10;99.90
71142;DHT22;58808;59.366;17.970;2024-03-29T11:05:28;8.10;99.90
71142;DHT22;58808;59.366;17.970;2024-03-29T11:07:56;8.10;99.90
71142;DHT22;58808;59.366;17.970;2024-03-29T11:15:53;8.10;99.90
71142;DHT22;58808;59.366;17.970;2024-03-29T11:18:20;8.10;99.90
71142;DHT22;58808;59.366;17.970;2024-03-29T11:20:47;8.10;99.90
71142;DHT22;58808;59.366;17.970;2024-03-29T11:23:18;8.10;99.90
71142;DHT22;58808;59.366;17.970;2024-03-29T11:25:46;8.10;99.90
71142;DHT22;58808;59.366;17.970;2024-03-29T11:28:15;8.20;99.90
71142;DHT22;58808;59.366;17.970;2024-03-29T11:30:47;8.20;99.90
71142;DHT22;58808;59.366;17.970;2024-03-29T11:33:30;8.30;99.90
71142;DHT22;58808;59.366;17.970;2024-03-29T11:36:21;8.30;99.90
71142;DHT22;58808;59.366;17.970;2024-03-29T11:38:53;8.60;99.90
71142;DHT22;58808;59.366;17.970;2024-03-29T11:41:27;8.90;99.90
71142;DHT22;58808;59.366;17.970;2024-03-29T11:43:54;9.10;99.90
71142;DHT22;58808;59.366;17.970;2024-03-29T11:46:20;9.20;99.90
71142;DHT22;58808;59.366;17.970;2024-03-29T11:48:46;9.30;99.90
71142;DHT22;58808;59.366;17.970;2024-03-29T11:51:16;9.40;99.90
71142;DHT22;58808;59.366;17.970;2024-03-29T11:53:42;9.70;99.90
71142;DHT22;58808;59.366;17.970;2024-03-29T11:56:08;9.70;99.90
71142;DHT22;58808;59.366;17.970;2024-03-29T11:58:34;9.60;99.90
71142;DHT22;58808;59.366;17.970;2024-03-29T12:01:01;9.70;99.90
71142;DHT22;58808;59.366;17.970;2024-03-29T12:03:31;9.90;99.90
71142;DHT22;58808;59.366;17.970;2024-03-29T12:05:58;10.10;99.90
71142;DHT22;58808;59.366;17.970;2024-03-29T12:08:25;10.50;99.90
71142;DHT22;58808;59.366;17.970;2024-03-29T12:10:53;10.90;99.90
71142;DHT22;58808;59.366;17.970;2024-03-29T12:13:19;10.90;99.90
71142;DHT22;58808;59.366;17.970;2024-03-29T12:15:45;10.80;99.90
71142;DHT22;58808;59.366;17.970;2024-03-29T12:18:11;10.90;99.90
71142;DHT22;58808;59.366;17.970;2024-03-29T12:20:40;11.00;99.90
71142;DHT22;58808;59.366;17.970;2024-03-29T12:23:07;10.90;99.90
71142;DHT22;58808;59.366;17.970;2024-03-29T12:25:36;10.80;99.90
71142;DHT22;58808;59.366;17.970;2024-03-29T12:28:03;10.70;99.90
71142;DHT22;58808;59.366;17.970;2024-03-29T12:30:29;10.60;99.90
71142;DHT22;58808;59.366;17.970;2024-03-29T12:33:07;10.70;99.90
71142;DHT22;58808;59.366;17.970;2024-03-29T12:35:35;10.60;99.90
71142;DHT22;58808;59.366;17.970;2024-03-29T12:38:05;10.60;99.90
71142;DHT22;58808;59.366;17.970;2024-03-29T12:40:33;10.70;99.90
71142;DHT22;58808;59.366;17.970;2024-03-29T12:43:05;10.70;99.90
71142;DHT22;58808;59.366;17.970;2024-03-29T12:45:31;10.70;99.90
71142;DHT22;58808;59.366;17.970;2024-03-29T12:47:57;10.90;99.90
71142;DHT22;58808;59.366;17.970;2024-03-29T12:50:28;11.30;99.90
71142;DHT22;58808;59.366;17.970;2024-03-29T12:53:01;11.30;99.90
71142;DHT22;58808;59.366;17.970;2024-03-29T12:55:29;11.00;99.90
71142;DHT22;58808;59.366;17.970;2024-03-29T12:58:02;10.90;99.90
71142;DHT22;58808;59.366;17.970;2024-03-29T13:00:32;10.70;99.90
71142;DHT22;58808;59.366;17.970;2024-03-29T13:02:58;10.70;99.90
71142;DHT22;58808;59.366;17.970;2024-03-29T13:05:24;10.60;99.90
71142;DHT22;58808;59.366;17.970;2024-03-29T13:07:50;10.60;99.90
71142;DHT22;58808;59.366;17.970;2024-03-29T13:10:16;10.50;99.90
71142;DHT22;58808;59.366;17.970;2024-03-29T13:12:47;10.40;99.90
71142;DHT22;58808;59.366;17.970;2024-03-29T13:15:24;10.40;99.90
71142;DHT22;58808;59.366;17.970;2024-03-29T13:17:54;10.40;99.90
71142;DHT22;58808;59.366;17.970;2024-03-29T13:20:21;10.40;99.90
71142;DHT22;58808;59.366;17.970;2024-03-29T13:22:48;10.30;99.90
71142;DHT22;58808;59.366;17.970;2024-03-29T13:25:21;10.30;99.90
71142;DHT22;58808;59.366;17.970;2024-03-29T13:27:50;10.30;99.90
71142;DHT22;58808;59.366;17.970;2024-03-29T13:30:24;10.30;99.90
71142;DHT22;58808;59.366;17.970;2024-03-29T13:32:51;10.30;99.90
71142;DHT22;58808;59.366;17.970;2024-03-29T13:35:17;10.30;99.90
71142;DHT22;58808;59.366;17.970;2024-03-29T13:37:47;10.30;99.90
71142;DHT22;58808;59.366;17.970;2024-03-29T13:40:13;10.30;99.90
71142;DHT22;58808;59.366;17.970;2024-03-29T13:42:40;10.30;99.90
71142;DHT22;58808;59.366;17.970;2024-03-29T13:45:06;10.30;99.90
71142;DHT22;58808;59.366;17.970;2024-03-29T13:47:33;10.30;99.90
71142;DHT22;58808;59.366;17.970;2024-03-29T13:49:59;10.40;99.90
71142;DHT22;58808;59.366;17.970;2024-03-29T13:52:25;10.40;99.90
71142;DHT22;58808;59.366;17.970;2024-03-29T13:54:53;10.50;99.90
71142;DHT22;58808;59.366;17.970;2024-03-29T13:57:19;10.60;99.90
71142;DHT22;58808;59.366;17.970;2024-03-29T13:59:46;10.90;99.90
71142;DHT22;58808;59.366;17.970;2024-03-29T14:02:13;11.10;99.90
71142;DHT22;58808;59.366;17.970;2024-03-29T14:04:40;11.20;99.90
71142;DHT22;58808;59.366;17.970;2024-03-29T14:07:05;11.20;99.90
71142;DHT22;58808;59.366;17.970;2024-03-29T14:09:34;11.40;99.90
71142;DHT22;58808;59.366;17.970;2024-03-29T14:12:00;11.50;99.90
71142;DHT22;58808;59.366;17.970;2024-03-29T14:14:26;11.70;99.90
71142;DHT22;58808;59.366;17.970;2024-03-29T14:16:52;11.70;99.90
71142;DHT22;58808;59.366;17.970;2024-03-29T14:19:17;11.60;99.90
71142;DHT22;58808;59.366;17.970;2024-03-29T14:21:43;11.40;99.90
71142;DHT22;58808;59.366;17.970;2024-03-29T14:24:09;11.20;99.90
71142;DHT22;58808;59.366;17.970;2024-03-29T14:26:34;11.10;99.90
71142;DHT22;58808;59.366;17.970;2024-03-29T14:29:00;11.00;99.90
71142;DHT22;58808;59.366;17.970;2024-03-29T14:31:26;11.00;99.90
71142;DHT22;58808;59.366;17.970;2024-03-29T14:33:51;11.00;99.90
71142;DHT22;58808;59.366;17.970;2024-03-29T14:36:17;10.90;99.90
71142;DHT22;58808;59.366;17.970;2024-03-29T14:38:44;10.90;99.90
71142;DHT22;58808;59.366;17.970;2024-03-29T14:41:10;10.80;99.90
71142;DHT22;58808;59.366;17.970;2024-03-29T14:43:36;10.80;99.90
71142;DHT22;58808;59.366;17.970;2024-03-29T14:46:01;10.80;99.90
71142;DHT22;58808;59.366;17.970;2024-03-29T14:48:27;10.80;99.90
71142;DHT22;58808;59.366;17.970;2024-03-29T14:50:53;10.80;99.90
71142;DHT22;58808;59.366;17.970;2024-03-29T14:53:22;10.80;99.90
71142;DHT22;58808;59.366;17.970;2024-03-29T14:55:47;10.80;99.90
71142;DHT22;58808;59.366;17.970;2024-03-29T14:58:13;10.80;99.90
71142;DHT22;58808;59.366;17.970;2024-03-29T15:00:39;10.80;99.90
71142;DHT22;58808;59.366;17.970;2024-03-29T15:03:04;10.80;99.90
71142;DHT22;58808;59.366;17.970;2024-03-29T15:05:30;10.90;99.90
71142;DHT22;58808;59.366;17.970;2024-03-29T15:07:56;10.90;99.90
71142;DHT22;58808;59.366;17.970;2024-03-29T15:10:22;10.90;99.90
71142;DHT22;58808;59.366;17.970;2024-03-29T15:12:49;10.90;99.90
71142;DHT22;58808;59.366;17.970;2024-03-29T15:15:14;11.00;99.90
71142;DHT22;58808;59.366;17.970;2024-03-29T15:17:40;11.00;99.90
71142;DHT22;58808;59.366;17.970;2024-03-29T15:20:07;11.10;99.90
71142;DHT22;58808;59.366;17.970;2024-03-29T15:22:37;11.20;99.90
71142;DHT22;58808;59.366;17.970;2024-03-29T15:25:04;11.50;99.90
71142;DHT22;58808;59.366;17.970;2024-03-29T15:27:30;11.70;99.90
71142;DHT22;58808;59.366;17.970;2024-03-29T15:30:17;11.70;99.90
71142;DHT22;58808;59.366;17.970;2024-03-29T15:32:42;11.70;99.90
71142;DHT22;58808;59.366;17.970;2024-03-29T15:35:08;11.70;99.90
71142;DHT22;58808;59.366;17.970;2024-03-29T15:37:35;11.80;99.90